Latest Coastal Weather Observations for Point Perpendicular

IDN60701

Issued at 6:42 am EST Thursday 23 May 2024 (issued every 10 minutes, with the page automatically refreshed every 10 minutes)

About coastal observations | Map of coastal stations | Coastal observations for NSW | Marine services | Other Formats
Station Details ID: 068151 Name: POINT PERPENDICULAR AWS Lat: -35.09 Lon: 150.80 Height: 85.0 m
Data from the previous 72 hours. | See also: Recent months at Point Perpendicular
Date/Time
EST
Wind Sea
Height
m
Swell Vis
km
Cloud Weather Temp
°C
Press
MSL
hPa
Rain since
9am
mm
Dir  Spd
kts
Gust
kts
Height
m
Period
s
Dir
23/06:30am WNW 4 4 - - - - - - - 10.2 1026.6 0.0
23/06:00am WNW 3 4 - - - - - - - 10.8 1026.2 0.0
23/05:30am WNW 3 3 - - - - - - - 10.7 1026.0 0.0
23/05:00am WNW 3 5 - - - - - - - 11.1 1025.7 0.0
23/04:30am WNW 3 4 - - - - - - - 11.1 1025.5 0.0
23/04:00am WNW 3 3 - - - - - - - 12.4 1025.4 0.0
23/03:30am WNW 3 4 - - - - - - - 12.6 1025.3 0.0
23/03:00am WNW 4 5 - - - - - - - 11.4 1025.3 0.0
23/02:30am WNW 3 5 - - - - - - - 12.8 1025.4 0.0
23/02:00am W 2 5 - - - - - - - 11.8 1025.7 0.0
23/01:30am W 2 3 - - - - - - - 13.1 1025.9 0.0
23/01:00am WNW 3 4 - - - - - - - 11.8 1026.0 0.0
23/12:30am W 2 4 - - - - - - - 11.8 1025.9 0.0
23/12:00am W 3 7 - - - - - - - 12.9 1025.9 0.0
 
Date/Time
EST
Wind Sea
Height
m
Swell Vis
km
Cloud Weather Temp
°C
Press
MSL
hPa
Rain since
9am
mm
Dir  Spd
kts
Gust
kts
Height
m
Period
s
Dir
22/11:30pm W 3 4 - - - - - - - 13.3 1026.1 0.0
22/11:00pm WNW 4 6 - - - - - - - 13.3 1026.1 0.0
22/10:30pm W 2 3 - - - - - - - 13.4 1026.0 0.0
22/10:00pm W 2 3 - - - - - - - 13.5 1026.1 0.0
22/09:30pm W 2 3 - - - - - - - 13.6 1026.1 0.0
22/09:00pm W 2 3 - - - - - - - 13.5 1026.1 0.0
22/08:30pm W 1 3 - - - - - - - 13.8 1026.1 0.0
22/08:00pm W 2 3 - - - - - - - 14.2 1026.1 0.0
22/07:30pm SW 4 6 - - - - - - - 15.6 1026.0 0.0
22/07:00pm SSW 6 10 - - - - - - - 15.8 1025.7 0.0
22/06:30pm SSW 6 9 - - - - - - - 15.7 1025.5 0.0
22/06:00pm SSW 7 10 - - - - - - - 15.7 1025.3 0.0
22/05:30pm SW 6 8 - - - - - - - 15.4 1025.2 0.0
22/05:00pm SSW 7 10 - - - - - - - 15.7 1024.9 0.0
22/04:30pm SSW 8 13 - - - - - - - 15.6 1024.6 0.0
22/04:00pm SSW 9 13 - - - - - - - 15.7 1024.6 0.0
22/03:30pm SSW 9 13 - - - - - - - 15.8 1024.4 0.0
22/03:00pm SSW 9 14 - - - - - - - 15.8 1024.4 0.0
22/02:30pm SSW 8 11 - - - - - - - 15.9 1024.4 0.0
22/02:00pm SSW 10 14 - - - - - - - 15.7 1024.6 0.0
22/01:30pm SSW 10 13 - - - - - - - 15.7 1024.7 0.0
22/01:00pm SSW 10 14 - - - - - - - 15.3 1025.1 0.0
22/12:30pm SSW 10 14 - - - - - - - 15.2 1025.5 0.0
22/12:00pm SSW 9 12 - - - - - - - 15.3 1025.9 0.0
22/11:30am SW 8 13 - - - - - - - 15.3 1026.2 0.0
22/11:00am SW 7 11 - - - - - - - 15.4 1026.6 0.0
22/10:30am SW 7 13 - - - - - - - 15.0 1026.9 0.0
22/10:00am WSW 6 9 - - - - - - - 14.8 1027.2 0.0
22/09:30am WSW 6 10 - - - - - - - 14.3 1027.2 0.0
22/09:00am WSW 7 11 - - - - - - - 13.6 1027.3 0.0
22/08:30am WSW 7 12 - - - - - - - 13.4 1027.2 0.0
22/08:00am WSW 5 8 - - - - - - - 13.3 1027.1 0.0
22/07:30am WSW 8 12 - - - - - - - 13.4 1026.8 0.0
22/07:00am WSW 7 10 - - - - - - - 13.4 1026.7 0.0
22/06:30am SW 7 11 - - - - - - - 13.4 1026.6 0.0
22/06:00am SW 7 11 - - - - - - - 13.5 1026.4 0.0
22/05:30am WSW 8 12 - - - - - - - 13.5 1026.2 0.0
22/05:00am SW 8 12 - - - - - - - 13.8 1025.9 0.0
22/04:30am SW 9 14 - - - - - - - 13.7 1025.8 0.0
22/04:00am SW 10 15 - - - - - - - 13.9 1025.8 0.0
22/03:30am WSW 6 9 - - - - - - - 14.1 1025.9 0.0
22/03:00am SW 6 9 - - - - - - - 13.7 1026.0 0.0
22/02:30am SW 6 10 - - - - - - - 13.3 1026.2 0.0
22/02:00am WSW 5 7 - - - - - - - 13.7 1026.3 0.0
22/01:30am WSW 6 10 - - - - - - - 14.3 1026.2 0.0
22/01:00am SW 7 10 - - - - - - - 14.3 1026.2 0.0
22/12:30am SW 7 12 - - - - - - - 14.3 1026.4 0.0
22/12:00am SW 7 11 - - - - - - - 14.3 1026.4 0.0
 
Date/Time
EST
Wind Sea
Height
m
Swell Vis
km
Cloud Weather Temp
°C
Press
MSL
hPa
Rain since
9am
mm
Dir  Spd
kts
Gust
kts
Height
m
Period
s
Dir
21/11:30pm WSW 8 11 - - - - - - - 14.4 1026.6 0.0
21/11:00pm SW 6 9 - - - - - - - 14.6 1026.8 0.0
21/10:30pm WSW 5 7 - - - - - - - 15.0 1026.9 0.0
21/10:00pm WSW 6 10 - - - - - - - 15.1 1027.0 0.0
21/09:30pm S 8 13 - - - - - - - 16.3 1026.9 0.0
21/09:00pm SSW 9 14 - - - - - - - 16.3 1026.9 0.0
21/08:30pm SSW 9 15 - - - - - - - 16.2 1027.0 0.0
21/08:00pm S 10 16 - - - - - - - 16.2 1027.0 0.0
21/07:30pm SSW 11 16 - - - - - - - 16.2 1027.0 0.0
21/07:00pm SSW 11 15 - - - - - - - 16.1 1027.0 0.0
21/06:30pm SSW 10 16 - - - - - - - 16.1 1026.7 0.0
21/06:00pm SSW 11 17 - - - - - - - 16.0 1026.6 0.0
21/05:30pm SSW 12 18 - - - - - - - 16.0 1026.4 0.0
21/05:00pm SSW 12 18 - - - - - - - 15.9 1026.1 0.0
21/04:30pm SSW 11 18 - - - - - - - 16.0 1026.0 0.0
21/04:00pm SSW 13 20 - - - - - - - 15.8 1025.9 0.0
21/03:30pm SSW 13 20 - - - - - - - 15.9 1025.7 0.0
21/03:00pm SSW 13 21 - - - - - - - 15.8 1025.7 0.0
21/02:30pm SSW 13 21 - - - - - - - 15.9 1025.6 0.0
21/02:00pm SSW 13 20 - - - - - - - 15.8 1025.5 0.0
21/01:30pm SSW 13 18 - - - - - - - 15.7 1025.7 0.0
21/01:00pm SSW 13 19 - - - - - - - 15.4 1026.0 0.0
21/12:30pm SSW 13 20 - - - - - - - 15.5 1026.3 0.0
21/12:00pm SSW 12 18 - - - - - - - 15.3 1026.8 0.0
21/11:30am SSW 14 22 - - - - - - - 14.9 1027.2 0.0
21/11:00am SSW 13 21 - - - - - - - 15.2 1027.1 0.0
21/10:30am SW 11 17 - - - - - - - 15.0 1027.8 0.0
21/10:00am SSW 16 25 - - - - - - - 14.1 1027.2 0.0
21/09:33am SSW 15 25 - - - - - - - 15.2 1027.2 0.0
21/09:30am SSW 15 22 - - - - - - - 15.3 1027.1 0.0
21/09:00am SSW 12 18 - - - - - - - 15.4 1026.9 0.0
21/08:30am SSW 15 23 - - - - - - - 15.2 1027.2 0.0
21/08:00am SSW 13 20 - - - - - - - 15.4 1026.9 0.0
21/07:30am SSW 13 20 - - - - - - - 14.7 1026.6 0.0
21/07:14am SSW 15 25 - - - - - - - 15.3 1026.1 0.0
21/07:00am SSW 17 23 - - - - - - - 15.2 1025.9 0.0
21/06:30am SSW 13 21 - - - - - - - 14.9 1025.8 0.0
21/06:04am SSW 16 27 - - - - - - - 15.1 1025.2 0.0
21/06:00am SSW 15 24 - - - - - - - 15.5 1025.2 0.0
21/05:33am SSW 15 25 - - - - - - - 15.4 1025.4 0.0
21/05:30am SSW 15 22 - - - - - - - 15.3 1025.4 0.0
21/05:00am SSW 16 27 - - - - - - - 15.2 1025.4 0.0
21/04:30am SSW 17 28 - - - - - - - 14.9 1024.4 0.0
21/04:20am SSW 17 27 - - - - - - - 15.3 1024.5 0.0
21/04:00am SSW 15 22 - - - - - - - 15.5 1024.7 0.0
21/03:30am SSW 11 22 - - - - - - - 14.7 1024.7 0.0
21/03:05am SSW 15 25 - - - - - - - 15.2 1024.8 0.0
21/03:00am SSW 15 23 - - - - - - - 15.0 1024.7 0.0
21/02:30am SSW 15 25 - - - - - - - 14.5 1024.4 0.0
21/02:08am SSW 15 25 - - - - - - - 15.1 1024.9 0.0
21/02:00am SSW 16 24 - - - - - - - 14.6 1024.8 0.0
21/01:36am SSW 15 25 - - - - - - - 15.0 1024.6 0.0
21/01:30am SSW 16 24 - - - - - - - 14.7 1024.8 0.0
21/01:02am SSW 17 27 - - - - - - - 15.1 1024.5 0.0
21/01:00am SSW 18 27 - - - - - - - 15.4 1024.5 0.0
21/12:31am SSW 17 27 - - - - - - - 15.3 1024.7 0.0
21/12:30am SSW 18 27 - - - - - - - 15.3 1024.7 0.0
21/12:22am SSW 17 27 - - - - - - - 15.3 1024.3 0.0
21/12:00am SSW 16 25 - - - - - - - 15.8 1024.8 0.0
 
Date/Time
EST
Wind Sea
Height
m
Swell Vis
km
Cloud Weather Temp
°C
Press
MSL
hPa
Rain since
9am
mm
Dir  Spd
kts
Gust
kts
Height
m
Period
s
Dir
20/11:30pm SSW 17 25 - - - - - - - 15.5 1024.9 0.0
20/11:00pm SSW 17 28 - - - - - - - 15.4 1024.8 0.0
20/10:40pm SSW 17 27 - - - - - - - 14.9 1024.8 0.0
20/10:30pm SSW 16 24 - - - - - - - 15.8 1025.0 0.0
20/10:00pm SSW 16 26 - - - - - - - 15.2 1024.7 0.0
20/09:30pm SSW 16 26 - - - - - - - 16.4 1024.7 0.0
20/09:22pm SSW 15 25 - - - - - - - 16.3 1024.7 0.0
20/09:00pm SSW 16 23 - - - - - - - 16.4 1024.7 0.0
20/08:30pm SSW 17 24 - - - - - - - 16.5 1024.6 0.0
20/08:00pm SSW 15 25 - - - - - - - 16.5 1024.3 0.0
20/07:54pm SSW 15 25 - - - - - - - 16.5 1024.2 0.0
20/07:30pm SSW 15 24 - - - - - - - 16.5 1024.1 0.0
20/07:00pm SSW 16 24 - - - - - - - 16.4 1023.8 0.0
20/06:45pm SSW 15 26 - - - - - - - 16.3 1023.8 0.0
20/06:30pm SSW 17 24 - - - - - - - 16.2 1023.7 0.0
20/06:00pm SSW 15 24 - - - - - - - 16.2 1023.4 0.0
20/05:30pm SSW 16 24 - - - - - - - 16.3 1023.4 0.0
20/05:00pm SSW 14 23 - - - - - - - 16.3 1023.0 0.0
20/04:30pm SSW 15 24 - - - - - - - 16.3 1023.0 0.0
20/04:14pm SSW 15 25 - - - - - - - 16.4 1022.9 0.0
20/04:00pm SSW 14 23 - - - - - - - 16.2 1022.7 0.0
20/03:30pm SSW 16 25 - - - - - - - 16.4 1022.4 0.0
20/03:08pm SSW 15 25 - - - - - - - 16.5 1022.3 0.0
20/03:00pm SSW 15 22 - - - - - - - 16.5 1022.3 0.0
20/02:30pm SSW 15 23 - - - - - - - 16.4 1022.0 0.0
20/02:00pm SSW 17 24 - - - - - - - 16.3 1021.5 0.0
20/01:30pm SSW 15 23 - - - - - - - 16.1 1021.7 0.0
20/01:22pm SSW 15 25 - - - - - - - 16.1 1021.7 0.0
20/01:00pm SSW 14 21 - - - - - - - 16.3 1021.7 0.0
20/12:31pm SSW 15 25 - - - - - - - 15.7 1021.8 0.0
20/12:30pm SSW 15 24 - - - - - - - 15.8 1021.8 0.0
20/12:00pm SSW 15 24 - - - - - - - 15.5 1022.4 0.0
20/11:30am SSW 13 21 - - - - - - - 15.4 1022.7 0.0
20/11:00am SSW 13 21 - - - - - - - 15.4 1022.9 0.0
20/10:30am SSW 12 20 - - - - - - - 14.9 1023.1 0.0
20/10:00am SSW 10 18 - - - - - - - 15.0 1023.0 0.0
20/09:30am SW 12 20 - - - - - - - 14.8 1022.9 0.0
20/09:00am SW 10 16 - - - - - - - 14.8 1022.7 0.0
20/08:30am WSW 7 12 - - - - - - - 14.2 1022.7 0.0
20/08:00am WSW 7 11 - - - - - - - 13.3 1022.6 0.0
20/07:30am WSW 8 12 - - - - - - - 13.2 1022.3 0.0
20/07:00am WSW 5 10 - - - - - - - 12.8 1022.0 0.0

Other formats

Comma delimited format used in spreadsheet applications
http://www.bom.gov.au/fwo/IDN60701/IDN60701.95940.axf

JavaScript Object Notation format (JSON) in row-major order
http://www.bom.gov.au/fwo/IDN60701/IDN60701.95940.json

Data quality

Most of these data are generated automatically and are frequently updated. Quality checks on data are not normally performed. It is possible for incorrect values to appear. Refer to information at About Latest Weather Observations and please check the disclaimer before using these data.